sensor_id;sensor_type;location;lat;lon;timestamp;temperature;humidity
9219;DHT22;4644;48.858;9.184;2023-05-20T00:01:19;11.30;99.90
9219;DHT22;4644;48.858;9.184;2023-05-20T00:03:46;11.20;99.90
9219;DHT22;4644;48.858;9.184;2023-05-20T00:06:13;11.10;99.90
9219;DHT22;4644;48.858;9.184;2023-05-20T00:08:40;11.00;99.90
9219;DHT22;4644;48.858;9.184;2023-05-20T00:11:08;11.00;99.90
9219;DHT22;4644;48.858;9.184;2023-05-20T00:13:36;10.90;99.90
9219;DHT22;4644;48.858;9.184;2023-05-20T00:16:04;10.90;99.90
9219;DHT22;4644;48.858;9.184;2023-05-20T00:18:31;10.90;99.90
9219;DHT22;4644;48.858;9.184;2023-05-20T00:20:58;11.00;99.90
9219;DHT22;4644;48.858;9.184;2023-05-20T00:23:25;10.90;99.90
9219;DHT22;4644;48.858;9.184;2023-05-20T00:25:52;11.00;99.90
9219;DHT22;4644;48.858;9.184;2023-05-20T00:28:20;10.90;99.90
9219;DHT22;4644;48.858;9.184;2023-05-20T00:30:48;11.00;99.90
9219;DHT22;4644;48.858;9.184;2023-05-20T00:33:15;11.00;99.90
9219;DHT22;4644;48.858;9.184;2023-05-20T00:35:42;10.90;99.90
9219;DHT22;4644;48.858;9.184;2023-05-20T00:38:09;11.00;99.90
9219;DHT22;4644;48.858;9.184;2023-05-20T00:40:36;11.00;99.90
9219;DHT22;4644;48.858;9.184;2023-05-20T00:43:03;11.10;99.90
9219;DHT22;4644;48.858;9.184;2023-05-20T00:45:31;11.20;99.90
9219;DHT22;4644;48.858;9.184;2023-05-20T00:47:58;11.20;99.90
9219;DHT22;4644;48.858;9.184;2023-05-20T00:50:28;11.30;99.90
9219;DHT22;4644;48.858;9.184;2023-05-20T00:52:55;11.40;99.90
9219;DHT22;4644;48.858;9.184;2023-05-20T00:55:23;11.50;99.90
9219;DHT22;4644;48.858;9.184;2023-05-20T00:57:51;11.50;99.90
9219;DHT22;4644;48.858;9.184;2023-05-20T01:00:18;11.50;99.90
9219;DHT22;4644;48.858;9.184;2023-05-20T01:02:47;11.50;99.90
9219;DHT22;4644;48.858;9.184;2023-05-20T01:05:14;11.50;99.90
9219;DHT22;4644;48.858;9.184;2023-05-20T01:07:41;11.50;99.90
9219;DHT22;4644;48.858;9.184;2023-05-20T01:10:09;11.50;99.90
9219;DHT22;4644;48.858;9.184;2023-05-20T01:12:38;11.50;99.90
9219;DHT22;4644;48.858;9.184;2023-05-20T01:15:07;11.50;99.90
9219;DHT22;4644;48.858;9.184;2023-05-20T01:17:37;11.50;99.90
9219;DHT22;4644;48.858;9.184;2023-05-20T01:20:07;11.50;99.90
9219;DHT22;4644;48.858;9.184;2023-05-20T01:22:38;11.50;99.90
9219;DHT22;4644;48.858;9.184;2023-05-20T01:25:06;11.50;99.90
9219;DHT22;4644;48.858;9.184;2023-05-20T01:27:33;11.60;99.90
9219;DHT22;4644;48.858;9.184;2023-05-20T01:30:00;11.60;99.90
9219;DHT22;4644;48.858;9.184;2023-05-20T01:32:30;11.70;99.90
9219;DHT22;4644;48.858;9.184;2023-05-20T01:34:58;11.70;99.90
9219;DHT22;4644;48.858;9.184;2023-05-20T01:37:26;11.70;99.90
9219;DHT22;4644;48.858;9.184;2023-05-20T01:39:55;11.70;99.90
9219;DHT22;4644;48.858;9.184;2023-05-20T01:42:25;11.70;99.90
9219;DHT22;4644;48.858;9.184;2023-05-20T01:44:53;11.70;99.90
9219;DHT22;4644;48.858;9.184;2023-05-20T01:47:20;11.70;99.90
9219;DHT22;4644;48.858;9.184;2023-05-20T01:49:47;11.70;99.90
9219;DHT22;4644;48.858;9.184;2023-05-20T01:52:17;11.70;99.90
9219;DHT22;4644;48.858;9.184;2023-05-20T01:54:44;11.70;99.90
9219;DHT22;4644;48.858;9.184;2023-05-20T01:57:17;11.70;99.90
9219;DHT22;4644;48.858;9.184;2023-05-20T01:59:44;11.70;99.90
9219;DHT22;4644;48.858;9.184;2023-05-20T02:02:10;11.80;99.90
9219;DHT22;4644;48.858;9.184;2023-05-20T02:04:37;11.80;99.90
9219;DHT22;4644;48.858;9.184;2023-05-20T02:07:06;11.80;99.90
9219;DHT22;4644;48.858;9.184;2023-05-20T02:09:33;11.90;99.90
9219;DHT22;4644;48.858;9.184;2023-05-20T02:12:00;11.80;99.90
9219;DHT22;4644;48.858;9.184;2023-05-20T02:14:28;11.80;99.90
9219;DHT22;4644;48.858;9.184;2023-05-20T02:16:55;11.80;99.90
9219;DHT22;4644;48.858;9.184;2023-05-20T02:19:22;11.80;99.90
9219;DHT22;4644;48.858;9.184;2023-05-20T02:21:50;11.70;99.90
9219;DHT22;4644;48.858;9.184;2023-05-20T02:24:17;11.70;99.90
9219;DHT22;4644;48.858;9.184;2023-05-20T02:26:45;11.70;99.90
9219;DHT22;4644;48.858;9.184;2023-05-20T02:29:13;11.60;99.90
9219;DHT22;4644;48.858;9.184;2023-05-20T02:31:42;11.60;99.90
9219;DHT22;4644;48.858;9.184;2023-05-20T02:34:09;11.60;99.90
9219;DHT22;4644;48.858;9.184;2023-05-20T02:36:36;11.60;99.90
9219;DHT22;4644;48.858;9.184;2023-05-20T02:39:03;11.50;99.90
9219;DHT22;4644;48.858;9.184;2023-05-20T02:41:30;11.50;99.90
9219;DHT22;4644;48.858;9.184;2023-05-20T02:43:57;11.50;99.90
9219;DHT22;4644;48.858;9.184;2023-05-20T02:46:25;11.50;99.90
9219;DHT22;4644;48.858;9.184;2023-05-20T02:48:53;11.50;99.90
9219;DHT22;4644;48.858;9.184;2023-05-20T02:51:20;11.40;99.90
9219;DHT22;4644;48.858;9.184;2023-05-20T02:53:47;11.40;99.90
9219;DHT22;4644;48.858;9.184;2023-05-20T02:56:14;11.40;99.90
9219;DHT22;4644;48.858;9.184;2023-05-20T02:58:41;11.40;99.90
9219;DHT22;4644;48.858;9.184;2023-05-20T03:01:08;11.30;99.90
9219;DHT22;4644;48.858;9.184;2023-05-20T03:03:35;11.30;99.90
9219;DHT22;4644;48.858;9.184;2023-05-20T03:06:04;11.30;99.90
9219;DHT22;4644;48.858;9.184;2023-05-20T03:08:31;11.30;99.90
9219;DHT22;4644;48.858;9.184;2023-05-20T03:11:01;11.30;99.90
9219;DHT22;4644;48.858;9.184;2023-05-20T03:13:28;11.30;99.90
9219;DHT22;4644;48.858;9.184;2023-05-20T03:15:55;11.30;99.90
9219;DHT22;4644;48.858;9.184;2023-05-20T03:18:22;11.30;99.90
9219;DHT22;4644;48.858;9.184;2023-05-20T03:20:49;11.40;99.90
9219;DHT22;4644;48.858;9.184;2023-05-20T03:23:17;11.30;99.90
9219;DHT22;4644;48.858;9.184;2023-05-20T03:25:44;11.30;99.90
9219;DHT22;4644;48.858;9.184;2023-05-20T03:28:11;11.30;99.90
9219;DHT22;4644;48.858;9.184;2023-05-20T03:30:38;11.30;99.90
9219;DHT22;4644;48.858;9.184;2023-05-20T03:33:04;11.20;99.90
9219;DHT22;4644;48.858;9.184;2023-05-20T03:35:32;11.20;99.90
9219;DHT22;4644;48.858;9.184;2023-05-20T03:37:59;11.20;99.90
9219;DHT22;4644;48.858;9.184;2023-05-20T03:40:28;11.20;99.90
9219;DHT22;4644;48.858;9.184;2023-05-20T03:42:54;11.10;99.90
9219;DHT22;4644;48.858;9.184;2023-05-20T03:45:21;11.00;99.90
9219;DHT22;4644;48.858;9.184;2023-05-20T03:47:48;10.90;99.90
9219;DHT22;4644;48.858;9.184;2023-05-20T03:50:16;11.00;99.90
9219;DHT22;4644;48.858;9.184;2023-05-20T03:52:43;10.90;99.90
9219;DHT22;4644;48.858;9.184;2023-05-20T03:55:10;10.90;99.90
9219;DHT22;4644;48.858;9.184;2023-05-20T03:57:38;10.90;99.90
9219;DHT22;4644;48.858;9.184;2023-05-20T04:00:07;10.90;99.90
9219;DHT22;4644;48.858;9.184;2023-05-20T04:02:36;10.80;99.90
9219;DHT22;4644;48.858;9.184;2023-05-20T04:05:04;10.90;99.90
9219;DHT22;4644;48.858;9.184;2023-05-20T04:07:33;10.90;99.90
9219;DHT22;4644;48.858;9.184;2023-05-20T04:10:01;10.90;99.90
9219;DHT22;4644;48.858;9.184;2023-05-20T04:12:28;10.90;99.90
9219;DHT22;4644;48.858;9.184;2023-05-20T04:14:58;10.90;99.90
9219;DHT22;4644;48.858;9.184;2023-05-20T04:17:27;11.00;99.90
9219;DHT22;4644;48.858;9.184;2023-05-20T04:19:55;11.00;99.90
9219;DHT22;4644;48.858;9.184;2023-05-20T04:22:24;11.10;99.90
9219;DHT22;4644;48.858;9.184;2023-05-20T04:24:51;11.10;99.90
9219;DHT22;4644;48.858;9.184;2023-05-20T04:27:18;11.20;99.90
9219;DHT22;4644;48.858;9.184;2023-05-20T04:29:46;11.30;99.90
9219;DHT22;4644;48.858;9.184;2023-05-20T04:32:16;11.40;99.90
9219;DHT22;4644;48.858;9.184;2023-05-20T04:34:44;11.50;99.90
9219;DHT22;4644;48.858;9.184;2023-05-20T04:37:11;11.50;99.90
9219;DHT22;4644;48.858;9.184;2023-05-20T04:39:38;11.60;99.90
9219;DHT22;4644;48.858;9.184;2023-05-20T04:42:05;11.60;99.90
9219;DHT22;4644;48.858;9.184;2023-05-20T04:44:32;11.70;99.90
9219;DHT22;4644;48.858;9.184;2023-05-20T04:46:59;11.70;99.90
9219;DHT22;4644;48.858;9.184;2023-05-20T04:49:27;11.70;99.90
9219;DHT22;4644;48.858;9.184;2023-05-20T04:51:54;11.70;99.90
9219;DHT22;4644;48.858;9.184;2023-05-20T04:54:21;11.70;99.90
9219;DHT22;4644;48.858;9.184;2023-05-20T04:56:49;11.70;99.90
9219;DHT22;4644;48.858;9.184;2023-05-20T04:59:16;11.60;99.90
9219;DHT22;4644;48.858;9.184;2023-05-20T05:01:43;11.60;99.90
9219;DHT22;4644;48.858;9.184;2023-05-20T05:04:10;11.70;99.90
9219;DHT22;4644;48.858;9.184;2023-05-20T05:06:38;11.70;99.90
9219;DHT22;4644;48.858;9.184;2023-05-20T05:09:05;11.80;99.90
9219;DHT22;4644;48.858;9.184;2023-05-20T05:11:34;12.00;99.90
9219;DHT22;4644;48.858;9.184;2023-05-20T05:14:01;12.30;99.90
9219;DHT22;4644;48.858;9.184;2023-05-20T05:16:28;12.40;99.90
9219;DHT22;4644;48.858;9.184;2023-05-20T05:18:55;12.60;99.90
9219;DHT22;4644;48.858;9.184;2023-05-20T05:21:22;12.80;99.90
9219;DHT22;4644;48.858;9.184;2023-05-20T05:23:50;12.90;99.90
9219;DHT22;4644;48.858;9.184;2023-05-20T05:26:17;13.10;99.90
9219;DHT22;4644;48.858;9.184;2023-05-20T05:28:44;13.20;99.90
9219;DHT22;4644;48.858;9.184;2023-05-20T05:31:11;13.30;99.90
9219;DHT22;4644;48.858;9.184;2023-05-20T05:33:38;13.20;99.90
9219;DHT22;4644;48.858;9.184;2023-05-20T05:36:05;13.40;99.90
9219;DHT22;4644;48.858;9.184;2023-05-20T05:38:32;13.40;99.90
9219;DHT22;4644;48.858;9.184;2023-05-20T05:41:00;13.60;99.90
9219;DHT22;4644;48.858;9.184;2023-05-20T05:43:27;13.80;99.90
9219;DHT22;4644;48.858;9.184;2023-05-20T05:45:54;14.10;99.90
9219;DHT22;4644;48.858;9.184;2023-05-20T05:48:21;14.20;99.90
9219;DHT22;4644;48.858;9.184;2023-05-20T05:50:48;14.30;99.90
9219;DHT22;4644;48.858;9.184;2023-05-20T05:53:15;14.20;99.90
9219;DHT22;4644;48.858;9.184;2023-05-20T05:55:42;14.30;99.90
9219;DHT22;4644;48.858;9.184;2023-05-20T05:58:13;14.50;99.90
9219;DHT22;4644;48.858;9.184;2023-05-20T06:00:40;14.80;99.90
9219;DHT22;4644;48.858;9.184;2023-05-20T06:03:07;15.10;99.90
9219;DHT22;4644;48.858;9.184;2023-05-20T06:05:34;15.20;99.90
9219;DHT22;4644;48.858;9.184;2023-05-20T06:08:01;15.00;99.90
9219;DHT22;4644;48.858;9.184;2023-05-20T06:10:27;15.10;99.90
9219;DHT22;4644;48.858;9.184;2023-05-20T06:12:54;15.30;99.90
9219;DHT22;4644;48.858;9.184;2023-05-20T06:15:23;15.30;99.90
9219;DHT22;4644;48.858;9.184;2023-05-20T06:17:50;15.40;99.90
9219;DHT22;4644;48.858;9.184;2023-05-20T06:20:17;15.40;99.90
9219;DHT22;4644;48.858;9.184;2023-05-20T06:22:44;15.40;99.90
9219;DHT22;4644;48.858;9.184;2023-05-20T06:25:11;15.50;99.90
9219;DHT22;4644;48.858;9.184;2023-05-20T06:27:38;15.60;99.90
9219;DHT22;4644;48.858;9.184;2023-05-20T06:30:08;15.60;99.90
9219;DHT22;4644;48.858;9.184;2023-05-20T06:32:37;15.50;99.90
9219;DHT22;4644;48.858;9.184;2023-05-20T06:35:04;15.60;99.90
9219;DHT22;4644;48.858;9.184;2023-05-20T06:37:31;15.60;99.90
9219;DHT22;4644;48.858;9.184;2023-05-20T06:39:58;15.60;99.90
9219;DHT22;4644;48.858;9.184;2023-05-20T06:42:25;15.70;99.90
9219;DHT22;4644;48.858;9.184;2023-05-20T06:44:52;15.80;99.90
9219;DHT22;4644;48.858;9.184;2023-05-20T06:47:20;16.20;99.90
9219;DHT22;4644;48.858;9.184;2023-05-20T06:49:48;16.40;99.90
9219;DHT22;4644;48.858;9.184;2023-05-20T06:52:15;16.40;99.90
9219;DHT22;4644;48.858;9.184;2023-05-20T06:54:42;16.30;99.90
9219;DHT22;4644;48.858;9.184;2023-05-20T06:57:11;16.50;99.90
9219;DHT22;4644;48.858;9.184;2023-05-20T06:59:38;16.60;99.90
9219;DHT22;4644;48.858;9.184;2023-05-20T07:02:06;16.70;99.90
9219;DHT22;4644;48.858;9.184;2023-05-20T07:04:36;16.90;99.90
9219;DHT22;4644;48.858;9.184;2023-05-20T07:07:05;17.00;99.90
9219;DHT22;4644;48.858;9.184;2023-05-20T07:09:31;17.40;99.90
9219;DHT22;4644;48.858;9.184;2023-05-20T07:11:58;17.60;99.90
9219;DHT22;4644;48.858;9.184;2023-05-20T07:14:26;17.60;99.90
9219;DHT22;4644;48.858;9.184;2023-05-20T07:16:53;17.60;99.90
9219;DHT22;4644;48.858;9.184;2023-05-20T07:19:20;17.90;99.90
9219;DHT22;4644;48.858;9.184;2023-05-20T07:21:47;17.80;99.90
9219;DHT22;4644;48.858;9.184;2023-05-20T07:24:16;17.70;99.90
9219;DHT22;4644;48.858;9.184;2023-05-20T07:26:43;17.70;99.90
9219;DHT22;4644;48.858;9.184;2023-05-20T07:29:10;17.80;99.90
9219;DHT22;4644;48.858;9.184;2023-05-20T07:31:37;18.00;99.90
9219;DHT22;4644;48.858;9.184;2023-05-20T07:34:04;18.30;99.90
9219;DHT22;4644;48.858;9.184;2023-05-20T07:36:31;18.10;99.90
9219;DHT22;4644;48.858;9.184;2023-05-20T07:38:58;18.00;99.90
9219;DHT22;4644;48.858;9.184;2023-05-20T07:41:28;17.90;99.90
9219;DHT22;4644;48.858;9.184;2023-05-20T07:43:55;18.20;99.90
9219;DHT22;4644;48.858;9.184;2023-05-20T07:46:22;18.40;99.90
9219;DHT22;4644;48.858;9.184;2023-05-20T07:48:49;18.80;99.90
9219;DHT22;4644;48.858;9.184;2023-05-20T07:51:16;19.30;99.90
9219;DHT22;4644;48.858;9.184;2023-05-20T07:53:44;19.60;99.90
9219;DHT22;4644;48.858;9.184;2023-05-20T07:56:11;19.70;99.90
9219;DHT22;4644;48.858;9.184;2023-05-20T07:58:40;19.60;99.90
9219;DHT22;4644;48.858;9.184;2023-05-20T08:01:08;19.50;99.90
9219;DHT22;4644;48.858;9.184;2023-05-20T08:03:36;19.70;99.90
9219;DHT22;4644;48.858;9.184;2023-05-20T08:06:03;19.60;99.90
9219;DHT22;4644;48.858;9.184;2023-05-20T08:08:30;19.70;99.90
9219;DHT22;4644;48.858;9.184;2023-05-20T08:10:57;20.10;99.90
9219;DHT22;4644;48.858;9.184;2023-05-20T08:13:26;20.20;99.90
9219;DHT22;4644;48.858;9.184;2023-05-20T08:15:55;20.10;99.90
9219;DHT22;4644;48.858;9.184;2023-05-20T08:18:22;19.90;99.90
9219;DHT22;4644;48.858;9.184;2023-05-20T08:20:49;19.80;99.90
9219;DHT22;4644;48.858;9.184;2023-05-20T08:23:16;19.70;99.90
9219;DHT22;4644;48.858;9.184;2023-05-20T08:25:43;19.50;99.90
9219;DHT22;4644;48.858;9.184;2023-05-20T08:28:12;19.20;99.90
9219;DHT22;4644;48.858;9.184;2023-05-20T08:30:39;19.10;99.90
9219;DHT22;4644;48.858;9.184;2023-05-20T08:33:08;19.10;99.90
9219;DHT22;4644;48.858;9.184;2023-05-20T08:35:35;19.40;99.90
9219;DHT22;4644;48.858;9.184;2023-05-20T08:38:04;19.20;99.90
9219;DHT22;4644;48.858;9.184;2023-05-20T08:40:33;19.20;99.90
9219;DHT22;4644;48.858;9.184;2023-05-20T08:43:01;19.60;99.90
9219;DHT22;4644;48.858;9.184;2023-05-20T08:45:31;19.90;99.90
9219;DHT22;4644;48.858;9.184;2023-05-20T08:47:59;20.20;99.90
9219;DHT22;4644;48.858;9.184;2023-05-20T08:50:27;20.40;99.90
9219;DHT22;4644;48.858;9.184;2023-05-20T08:52:54;20.60;99.90
9219;DHT22;4644;48.858;9.184;2023-05-20T08:55:24;21.10;99.90
9219;DHT22;4644;48.858;9.184;2023-05-20T08:57:52;21.40;99.90
9219;DHT22;4644;48.858;9.184;2023-05-20T09:00:20;21.30;99.90
9219;DHT22;4644;48.858;9.184;2023-05-20T09:02:48;21.10;99.90
9219;DHT22;4644;48.858;9.184;2023-05-20T09:05:17;21.00;99.90
9219;DHT22;4644;48.858;9.184;2023-05-20T09:07:45;20.70;99.90
9219;DHT22;4644;48.858;9.184;2023-05-20T09:10:12;21.30;99.90
9219;DHT22;4644;48.858;9.184;2023-05-20T09:12:39;21.80;99.90
9219;DHT22;4644;48.858;9.184;2023-05-20T09:15:07;22.10;99.90
9219;DHT22;4644;48.858;9.184;2023-05-20T09:17:35;22.10;99.90
9219;DHT22;4644;48.858;9.184;2023-05-20T09:20:05;22.30;99.90
9219;DHT22;4644;48.858;9.184;2023-05-20T09:22:34;22.40;98.20
9219;DHT22;4644;48.858;9.184;2023-05-20T09:25:04;22.20;97.30
9219;DHT22;4644;48.858;9.184;2023-05-20T09:27:31;22.00;98.80
9219;DHT22;4644;48.858;9.184;2023-05-20T09:29:58;22.00;99.10
9219;DHT22;4644;48.858;9.184;2023-05-20T09:32:26;22.00;99.20
9219;DHT22;4644;48.858;9.184;2023-05-20T09:34:53;22.30;99.10
9219;DHT22;4644;48.858;9.184;2023-05-20T09:37:21;22.60;97.50
9219;DHT22;4644;48.858;9.184;2023-05-20T09:39:54;22.40;97.50
9219;DHT22;4644;48.858;9.184;2023-05-20T09:42:27;22.20;97.70
9219;DHT22;4644;48.858;9.184;2023-05-20T09:45:00;21.80;97.60
9219;DHT22;4644;48.858;9.184;2023-05-20T09:47:29;21.70;98.20
9219;DHT22;4644;48.858;9.184;2023-05-20T09:49:56;21.90;97.60
9219;DHT22;4644;48.858;9.184;2023-05-20T09:52:25;22.00;98.30
9219;DHT22;4644;48.858;9.184;2023-05-20T09:54:53;21.60;98.10
9219;DHT22;4644;48.858;9.184;2023-05-20T09:57:21;22.10;99.50
9219;DHT22;4644;48.858;9.184;2023-05-20T09:59:51;22.60;97.70
9219;DHT22;4644;48.858;9.184;2023-05-20T10:02:19;22.60;97.40
9219;DHT22;4644;48.858;9.184;2023-05-20T10:04:48;22.50;97.90
9219;DHT22;4644;48.858;9.184;2023-05-20T10:07:37;22.80;98.00
9219;DHT22;4644;48.858;9.184;2023-05-20T10:10:16;22.70;96.00
9219;DHT22;4644;48.858;9.184;2023-05-20T10:12:49;22.60;97.00
9219;DHT22;4644;48.858;9.184;2023-05-20T10:15:23;23.10;97.00
9219;DHT22;4644;48.858;9.184;2023-05-20T10:18:09;23.60;96.60
9219;DHT22;4644;48.858;9.184;2023-05-20T10:20:46;23.60;94.00
9219;DHT22;4644;48.858;9.184;2023-05-20T10:23:23;23.70;94.40
9219;DHT22;4644;48.858;9.184;2023-05-20T10:25:51;23.70;95.10
9219;DHT22;4644;48.858;9.184;2023-05-20T10:28:28;24.20;94.90
9219;DHT22;4644;48.858;9.184;2023-05-20T10:30:57;24.50;93.30
9219;DHT22;4644;48.858;9.184;2023-05-20T10:33:25;24.90;92.00
9219;DHT22;4644;48.858;9.184;2023-05-20T10:35:53;24.90;91.20
9219;DHT22;4644;48.858;9.184;2023-05-20T10:38:22;24.80;91.90
9219;DHT22;4644;48.858;9.184;2023-05-20T10:40:49;24.50;91.90
9219;DHT22;4644;48.858;9.184;2023-05-20T10:43:26;23.70;92.20
9219;DHT22;4644;48.858;9.184;2023-05-20T10:45:55;23.10;92.50
9219;DHT22;4644;48.858;9.184;2023-05-20T10:48:26;22.90;94.40
9219;DHT22;4644;48.858;9.184;2023-05-20T10:50:54;23.30;93.80
9219;DHT22;4644;48.858;9.184;2023-05-20T10:53:39;23.70;92.60
9219;DHT22;4644;48.858;9.184;2023-05-20T10:56:15;24.10;91.70
9219;DHT22;4644;48.858;9.184;2023-05-20T10:58:43;23.90;91.20
9219;DHT22;4644;48.858;9.184;2023-05-20T11:01:11;23.80;91.40
9219;DHT22;4644;48.858;9.184;2023-05-20T11:03:39;24.20;90.90
9219;DHT22;4644;48.858;9.184;2023-05-20T11:06:13;25.30;91.30
9219;DHT22;4644;48.858;9.184;2023-05-20T11:08:42;26.10;84.50
9219;DHT22;4644;48.858;9.184;2023-05-20T11:11:10;25.90;83.40
9219;DHT22;4644;48.858;9.184;2023-05-20T11:13:37;26.30;86.70
9219;DHT22;4644;48.858;9.184;2023-05-20T11:16:05;27.10;80.00
9219;DHT22;4644;48.858;9.184;2023-05-20T11:18:32;28.30;76.00
9219;DHT22;4644;48.858;9.184;2023-05-20T11:21:00;29.20;71.90
9219;DHT22;4644;48.858;9.184;2023-05-20T11:23:28;29.50;65.90
9219;DHT22;4644;48.858;9.184;2023-05-20T11:25:56;30.00;65.90
9219;DHT22;4644;48.858;9.184;2023-05-20T11:28:26;31.30;62.50
9219;DHT22;4644;48.858;9.184;2023-05-20T11:30:54;31.50;58.30
9219;DHT22;4644;48.858;9.184;2023-05-20T11:33:24;31.00;56.70
9219;DHT22;4644;48.858;9.184;2023-05-20T11:35:52;31.20;56.10
9219;DHT22;4644;48.858;9.184;2023-05-20T11:38:20;31.20;55.90
9219;DHT22;4644;48.858;9.184;2023-05-20T11:40:51;31.20;56.50
9219;DHT22;4644;48.858;9.184;2023-05-20T11:43:20;30.60;55.40
9219;DHT22;4644;48.858;9.184;2023-05-20T11:45:53;29.70;56.10
9219;DHT22;4644;48.858;9.184;2023-05-20T11:48:20;28.80;58.20
9219;DHT22;4644;48.858;9.184;2023-05-20T11:50:47;28.30;59.80
9219;DHT22;4644;48.858;9.184;2023-05-20T11:53:15;27.60;61.60
9219;DHT22;4644;48.858;9.184;2023-05-20T11:55:45;27.00;66.00
9219;DHT22;4644;48.858;9.184;2023-05-20T11:58:15;26.50;66.70
9219;DHT22;4644;48.858;9.184;2023-05-20T12:00:43;25.40;68.70
9219;DHT22;4644;48.858;9.184;2023-05-20T12:03:10;25.30;71.10
9219;DHT22;4644;48.858;9.184;2023-05-20T12:05:37;25.00;70.50
9219;DHT22;4644;48.858;9.184;2023-05-20T12:08:05;25.40;70.40
9219;DHT22;4644;48.858;9.184;2023-05-20T12:10:32;25.10;73.90
9219;DHT22;4644;48.858;9.184;2023-05-20T12:12:59;25.10;71.80
9219;DHT22;4644;48.858;9.184;2023-05-20T12:15:28;24.90;72.20
9219;DHT22;4644;48.858;9.184;2023-05-20T12:17:56;24.80;72.00
9219;DHT22;4644;48.858;9.184;2023-05-20T12:20:24;24.80;73.70
9219;DHT22;4644;48.858;9.184;2023-05-20T12:22:51;24.80;74.70
9219;DHT22;4644;48.858;9.184;2023-05-20T12:25:18;24.60;74.50
9219;DHT22;4644;48.858;9.184;2023-05-20T12:27:47;24.30;77.20
9219;DHT22;4644;48.858;9.184;2023-05-20T12:30:15;24.50;76.40
9219;DHT22;4644;48.858;9.184;2023-05-20T12:32:43;25.10;76.50
9219;DHT22;4644;48.858;9.184;2023-05-20T12:35:12;25.20;75.70
9219;DHT22;4644;48.858;9.184;2023-05-20T12:37:40;25.00;77.10
9219;DHT22;4644;48.858;9.184;2023-05-20T12:40:09;25.10;77.60
9219;DHT22;4644;48.858;9.184;2023-05-20T12:42:37;25.30;73.70
9219;DHT22;4644;48.858;9.184;2023-05-20T12:45:06;25.40;71.40
9219;DHT22;4644;48.858;9.184;2023-05-20T12:47:33;25.40;71.20
9219;DHT22;4644;48.858;9.184;2023-05-20T12:50:01;25.40;71.30
9219;DHT22;4644;48.858;9.184;2023-05-20T12:52:30;25.50;71.90
9219;DHT22;4644;48.858;9.184;2023-05-20T12:54:57;25.50;73.10
9219;DHT22;4644;48.858;9.184;2023-05-20T12:57:24;25.30;73.30
9219;DHT22;4644;48.858;9.184;2023-05-20T12:59:51;25.00;73.90
9219;DHT22;4644;48.858;9.184;2023-05-20T13:02:18;24.50;73.40
9219;DHT22;4644;48.858;9.184;2023-05-20T13:04:47;24.70;74.60
9219;DHT22;4644;48.858;9.184;2023-05-20T13:07:14;24.70;76.30
9219;DHT22;4644;48.858;9.184;2023-05-20T13:09:44;24.90;75.70
9219;DHT22;4644;48.858;9.184;2023-05-20T13:12:11;24.80;74.80
9219;DHT22;4644;48.858;9.184;2023-05-20T13:14:40;24.90;74.20
9219;DHT22;4644;48.858;9.184;2023-05-20T13:17:08;24.90;74.70
9219;DHT22;4644;48.858;9.184;2023-05-20T13:19:35;24.90;72.60
9219;DHT22;4644;48.858;9.184;2023-05-20T13:22:02;24.90;73.80
9219;DHT22;4644;48.858;9.184;2023-05-20T13:24:30;24.70;74.10
9219;DHT22;4644;48.858;9.184;2023-05-20T13:26:58;24.50;75.70
9219;DHT22;4644;48.858;9.184;2023-05-20T13:29:25;24.50;75.60
9219;DHT22;4644;48.858;9.184;2023-05-20T13:31:53;24.70;75.70
9219;DHT22;4644;48.858;9.184;2023-05-20T13:34:20;24.80;76.30
9219;DHT22;4644;48.858;9.184;2023-05-20T13:36:46;25.00;74.40
9219;DHT22;4644;48.858;9.184;2023-05-20T13:39:14;25.20;72.50
9219;DHT22;4644;48.858;9.184;2023-05-20T13:41:41;24.90;72.20
9219;DHT22;4644;48.858;9.184;2023-05-20T13:44:09;24.50;72.70
9219;DHT22;4644;48.858;9.184;2023-05-20T13:46:36;24.50;78.70
9219;DHT22;4644;48.858;9.184;2023-05-20T13:49:03;24.80;74.20
9219;DHT22;4644;48.858;9.184;2023-05-20T13:51:30;24.60;73.50
9219;DHT22;4644;48.858;9.184;2023-05-20T13:53:57;24.60;73.90
9219;DHT22;4644;48.858;9.184;2023-05-20T13:56:25;24.60;72.10
9219;DHT22;4644;48.858;9.184;2023-05-20T13:58:52;24.50;73.50
9219;DHT22;4644;48.858;9.184;2023-05-20T14:01:21;24.60;73.70
9219;DHT22;4644;48.858;9.184;2023-05-20T14:03:48;24.80;72.10
9219;DHT22;4644;48.858;9.184;2023-05-20T14:06:15;24.70;72.30
9219;DHT22;4644;48.858;9.184;2023-05-20T14:08:43;24.60;72.60
9219;DHT22;4644;48.858;9.184;2023-05-20T14:11:10;24.30;73.60
9219;DHT22;4644;48.858;9.184;2023-05-20T14:13:37;24.40;73.70
9219;DHT22;4644;48.858;9.184;2023-05-20T14:16:05;24.30;74.60
9219;DHT22;4644;48.858;9.184;2023-05-20T14:18:33;24.10;73.90
9219;DHT22;4644;48.858;9.184;2023-05-20T14:21:00;24.00;74.60
9219;DHT22;4644;48.858;9.184;2023-05-20T14:23:27;23.90;73.70
9219;DHT22;4644;48.858;9.184;2023-05-20T14:25:54;23.70;72.70
9219;DHT22;4644;48.858;9.184;2023-05-20T14:28:21;23.80;75.00
9219;DHT22;4644;48.858;9.184;2023-05-20T14:30:48;23.90;74.70
9219;DHT22;4644;48.858;9.184;2023-05-20T14:33:15;24.00;73.00
9219;DHT22;4644;48.858;9.184;2023-05-20T14:35:43;24.10;74.10
9219;DHT22;4644;48.858;9.184;2023-05-20T14:38:10;23.90;74.20
9219;DHT22;4644;48.858;9.184;2023-05-20T14:40:37;24.00;74.70
9219;DHT22;4644;48.858;9.184;2023-05-20T14:43:04;24.20;74.70
9219;DHT22;4644;48.858;9.184;2023-05-20T14:45:31;24.10;75.10
9219;DHT22;4644;48.858;9.184;2023-05-20T14:47:58;24.40;74.60
9219;DHT22;4644;48.858;9.184;2023-05-20T14:50:25;24.50;75.30
9219;DHT22;4644;48.858;9.184;2023-05-20T14:52:53;24.30;75.20
9219;DHT22;4644;48.858;9.184;2023-05-20T14:55:20;24.20;75.70
9219;DHT22;4644;48.858;9.184;2023-05-20T14:57:47;24.20;76.00
9219;DHT22;4644;48.858;9.184;2023-05-20T15:00:17;24.20;76.00
9219;DHT22;4644;48.858;9.184;2023-05-20T15:02:45;24.50;75.20
9219;DHT22;4644;48.858;9.184;2023-05-20T15:05:12;24.50;75.80
9219;DHT22;4644;48.858;9.184;2023-05-20T15:07:39;24.40;74.80
9219;DHT22;4644;48.858;9.184;2023-05-20T15:10:08;24.50;75.20
9219;DHT22;4644;48.858;9.184;2023-05-20T15:12:36;24.50;74.60
9219;DHT22;4644;48.858;9.184;2023-05-20T15:15:03;24.50;73.60
9219;DHT22;4644;48.858;9.184;2023-05-20T15:17:30;24.30;74.10
9219;DHT22;4644;48.858;9.184;2023-05-20T15:19:57;24.30;74.50
9219;DHT22;4644;48.858;9.184;2023-05-20T15:22:25;24.20;73.60
9219;DHT22;4644;48.858;9.184;2023-05-20T15:24:52;24.20;74.00
9219;DHT22;4644;48.858;9.184;2023-05-20T15:27:20;24.10;74.30
9219;DHT22;4644;48.858;9.184;2023-05-20T15:29:52;24.10;74.70
9219;DHT22;4644;48.858;9.184;2023-05-20T15:32:19;24.00;74.80
9219;DHT22;4644;48.858;9.184;2023-05-20T15:34:46;23.90;75.30
9219;DHT22;4644;48.858;9.184;2023-05-20T15:37:25;23.70;75.70
9219;DHT22;4644;48.858;9.184;2023-05-20T15:39:52;23.70;75.30
9219;DHT22;4644;48.858;9.184;2023-05-20T15:42:24;23.70;76.20
9219;DHT22;4644;48.858;9.184;2023-05-20T15:44:54;23.60;75.40
9219;DHT22;4644;48.858;9.184;2023-05-20T15:47:21;23.60;76.10
9219;DHT22;4644;48.858;9.184;2023-05-20T15:49:48;24.10;77.20
9219;DHT22;4644;48.858;9.184;2023-05-20T15:52:15;25.70;73.60
9219;DHT22;4644;48.858;9.184;2023-05-20T15:54:44;28.20;69.10
9219;DHT22;4644;48.858;9.184;2023-05-20T15:57:11;28.30;66.50
9219;DHT22;4644;48.858;9.184;2023-05-20T15:59:40;28.00;65.40
9219;DHT22;4644;48.858;9.184;2023-05-20T16:02:06;27.20;67.50
9219;DHT22;4644;48.858;9.184;2023-05-20T16:04:33;26.70;66.80
9219;DHT22;4644;48.858;9.184;2023-05-20T16:07:00;26.40;68.70